N100MB KAPA-KAEG
Flight info
| Callsign | N100MB |
|---|---|
| Flight time | N/A |
| Altitude | 7500 |
| Route | BRK V611 CIM/N0110F080 ESPAN |
| Aircraft | C172/L-SFG/C |
Departure
| Time | 2026-04-14 16:50 |
|---|---|
| Airport | Centennial Airport (KAPA) |
Arrival
| Time | N/A |
|---|---|
| Airport | Double Eagle II Airport (KAEG) |
| Time | Latitude | Longitude | Altitude | Speed | Heading |
|---|---|---|---|---|---|
| 2026-04-14 16:40 | 39.57652 | -104.84884 | 5843 ft | 0 kts | 214° |
| 2026-04-14 16:41 | 39.57616 | -104.84911 | 5843 ft | 12 kts | 207° |
| 2026-04-14 16:41 | 39.57560 | -104.84928 | 5844 ft | 6 kts | 174° |
| 2026-04-14 16:41 | 39.57553 | -104.84927 | 5844 ft | 0 kts | 153° |
| 2026-04-14 16:46 | 39.57542 | -104.84916 | 5844 ft | 8 kts | 137° |
| 2026-04-14 16:46 | 39.57501 | -104.84882 | 5845 ft | 7 kts | 150° |
| 2026-04-14 16:46 | 39.57444 | -104.84869 | 5848 ft | 7 kts | 179° |
| 2026-04-14 16:47 | 39.57404 | -104.84852 | 5850 ft | 8 kts | 143° |
| 2026-04-14 16:47 | 39.57381 | -104.84827 | 5853 ft | 1 kts | 136° |
| 2026-04-14 16:47 | 39.57372 | -104.84815 | 5859 ft | 7 kts | 133° |
| 2026-04-14 16:48 | 39.57347 | -104.84791 | 5860 ft | 3 kts | 182° |
| 2026-04-14 16:48 | 39.57293 | -104.84815 | 5866 ft | 7 kts | 186° |
| 2026-04-14 16:48 | 39.57261 | -104.84714 | 5858 ft | 28 kts | 109° |
| 2026-04-14 16:48 | 39.57142 | -104.84322 | 5844 ft | 64 kts | 111° |
| 2026-04-14 16:49 | 39.56948 | -104.83700 | 5868 ft | 79 kts | 107° |
| 2026-04-14 16:49 | 39.56768 | -104.83051 | 6014 ft | 74 kts | 108° |
| 2026-04-14 16:49 | 39.56529 | -104.82445 | 6101 ft | 80 kts | 126° |
| 2026-04-14 16:49 | 39.56027 | -104.82080 | 6179 ft | 90 kts | 167° |
| 2026-04-14 16:50 | 39.55422 | -104.81961 | 6350 ft | 87 kts | 173° |
| 2026-04-14 16:50 | 39.54815 | -104.81760 | 6408 ft | 93 kts | 159° |
| 2026-04-14 16:50 | 39.54250 | -104.81460 | 6559 ft | 87 kts | 155° |
| 2026-04-14 16:50 | 39.53674 | -104.81144 | 6643 ft | 91 kts | 158° |
| 2026-04-14 16:51 | 39.53082 | -104.80815 | 6730 ft | 92 kts | 155° |
| 2026-04-14 16:51 | 39.52500 | -104.80502 | 6874 ft | 90 kts | 156° |
| 2026-04-14 16:51 | 39.51913 | -104.80192 | 7000 ft | 92 kts | 157° |
| 2026-04-14 16:51 | 39.51326 | -104.79890 | 7104 ft | 93 kts | 157° |
| 2026-04-14 16:52 | 39.50677 | -104.79692 | 7182 ft | 100 kts | 175° |
| 2026-04-14 16:52 | 39.50012 | -104.79680 | 7343 ft | 93 kts | 178° |
| 2026-04-14 16:52 | 39.49374 | -104.79637 | 7455 ft | 94 kts | 172° |
| 2026-04-14 16:52 | 39.48717 | -104.79576 | 7597 ft | 91 kts | 185° |
| 2026-04-14 16:53 | 39.48062 | -104.79612 | 7687 ft | 95 kts | 176° |
| 2026-04-14 16:53 | 39.47409 | -104.79510 | 7749 ft | 99 kts | 159° |
| 2026-04-14 16:53 | 39.46756 | -104.79320 | 7889 ft | 95 kts | 172° |
| 2026-04-14 16:53 | 39.46089 | -104.79264 | 8001 ft | 94 kts | 177° |
| 2026-04-14 16:54 | 39.45501 | -104.79099 | 8072 ft | 85 kts | 117° |
| 2026-04-14 16:54 | 39.45211 | -104.78468 | 8102 ft | 87 kts | 130° |
| 2026-04-14 16:54 | 39.44656 | -104.78121 | 8164 ft | 92 kts | 177° |
| 2026-04-14 16:54 | 39.44021 | -104.78174 | 8241 ft | 93 kts | 181° |
| 2026-04-14 16:55 | 39.43371 | -104.78244 | 8346 ft | 95 kts | 181° |
| 2026-04-14 16:55 | 39.42714 | -104.78334 | 8432 ft | 95 kts | 181° |
| 2026-04-14 16:55 | 39.42044 | -104.78425 | 8485 ft | 101 kts | 180° |
| 2026-04-14 16:55 | 39.41309 | -104.78513 | 8488 ft | 111 kts | 180° |
| 2026-04-14 16:56 | 39.40504 | -104.78589 | 8482 ft | 120 kts | 182° |
| 2026-04-14 16:56 | 39.39651 | -104.78675 | 8475 ft | 125 kts | 182° |
| 2026-04-14 16:56 | 39.38784 | -104.78751 | 8472 ft | 125 kts | 181° |
| 2026-04-14 16:56 | 39.37941 | -104.78563 | 8458 ft | 124 kts | 154° |
| 2026-04-14 16:57 | 39.37098 | -104.78356 | 8387 ft | 126 kts | 168° |
| 2026-04-14 16:57 | 39.36231 | -104.78186 | 8382 ft | 126 kts | 167° |
| 2026-04-14 16:57 | 39.35375 | -104.78022 | 8381 ft | 123 kts | 168° |
| 2026-04-14 16:57 | 39.34529 | -104.77858 | 8381 ft | 122 kts | 169° |
| 2026-04-14 16:58 | 39.33688 | -104.77707 | 8377 ft | 122 kts | 168° |
| 2026-04-14 16:58 | 39.32843 | -104.77561 | 8382 ft | 123 kts | 168° |
| 2026-04-14 16:58 | 39.31999 | -104.77396 | 8386 ft | 122 kts | 161° |
| 2026-04-14 16:58 | 39.31223 | -104.76980 | 8384 ft | 120 kts | 152° |
| 2026-04-14 16:59 | 39.30450 | -104.76555 | 8390 ft | 121 kts | 150° |
| 2026-04-14 16:59 | 39.29925 | -104.76307 | 8397 ft | 120 kts | 155° |
| 2026-04-14 16:59 | 39.29152 | -104.75919 | 8403 ft | 119 kts | 153° |
| 2026-04-14 16:59 | 39.28387 | -104.75532 | 8396 ft | 117 kts | 150° |
| 2026-04-14 17:00 | 39.27649 | -104.75104 | 8404 ft | 116 kts | 149° |
| 2026-04-14 17:00 | 39.26680 | -104.74535 | 8406 ft | 114 kts | 150° |
| 2026-04-14 17:00 | 39.25951 | -104.74127 | 8409 ft | 115 kts | 151° |
| 2026-04-14 17:00 | 39.25455 | -104.73846 | 8411 ft | 115 kts | 149° |
| 2026-04-14 17:01 | 39.24722 | -104.73443 | 8415 ft | 116 kts | 150° |
| 2026-04-14 17:01 | 39.23972 | -104.73053 | 8421 ft | 116 kts | 152° |
| 2026-04-14 17:01 | 39.23231 | -104.72653 | 8482 ft | 114 kts | 150° |
| 2026-04-14 17:01 | 39.22504 | -104.72263 | 8583 ft | 111 kts | 151° |
| 2026-04-14 17:02 | 39.21802 | -104.71876 | 8683 ft | 108 kts | 151° |
| 2026-04-14 17:02 | 39.21115 | -104.71497 | 8789 ft | 107 kts | 151° |
| 2026-04-14 17:02 | 39.20421 | -104.71163 | 8888 ft | 105 kts | 151° |
| 2026-04-14 17:02 | 39.19744 | -104.70823 | 8990 ft | 104 kts | 151° |
| 2026-04-14 17:03 | 39.19078 | -104.70482 | 9092 ft | 102 kts | 150° |
| 2026-04-14 17:03 | 39.18421 | -104.70132 | 9200 ft | 102 kts | 150° |
| 2026-04-14 17:03 | 39.17766 | -104.69785 | 9299 ft | 101 kts | 149° |
| 2026-04-14 17:03 | 39.17115 | -104.69459 | 9402 ft | 99 kts | 150° |
| 2026-04-14 17:04 | 39.16469 | -104.69147 | 9507 ft | 100 kts | 151° |
| 2026-04-14 17:04 | 39.15825 | -104.68842 | 9609 ft | 99 kts | 152° |
| 2026-04-14 17:04 | 39.15194 | -104.68518 | 9711 ft | 96 kts | 150° |
| 2026-04-14 17:04 | 39.14575 | -104.68211 | 9815 ft | 95 kts | 151° |
| 2026-04-14 17:05 | 39.13956 | -104.67904 | 9906 ft | 95 kts | 151° |
| 2026-04-14 17:05 | 39.13343 | -104.67612 | 10000 ft | 92 kts | 152° |
| 2026-04-14 17:05 | 39.12725 | -104.67364 | 10061 ft | 96 kts | 165° |
| 2026-04-14 17:05 | 39.12074 | -104.67329 | 10161 ft | 92 kts | 175° |
| 2026-04-14 17:06 | 39.11458 | -104.67324 | 10234 ft | 87 kts | 174° |
| 2026-04-14 17:06 | 39.10875 | -104.67324 | 10317 ft | 82 kts | 173° |
| 2026-04-14 17:06 | 39.10299 | -104.67332 | 10348 ft | 83 kts | 173° |
| 2026-04-14 17:06 | 39.09714 | -104.67330 | 10387 ft | 85 kts | 179° |
| 2026-04-14 17:07 | 39.09115 | -104.67259 | 10424 ft | 88 kts | 174° |
| 2026-04-14 17:07 | 39.08497 | -104.67170 | 10469 ft | 90 kts | 173° |
| 2026-04-14 17:07 | 39.07848 | -104.67078 | 10508 ft | 96 kts | 173° |
| 2026-04-14 17:07 | 39.07152 | -104.66977 | 10517 ft | 104 kts | 174° |
| 2026-04-14 17:08 | 39.06404 | -104.66867 | 10518 ft | 111 kts | 173° |
| 2026-04-14 17:08 | 39.05622 | -104.66751 | 10517 ft | 116 kts | 173° |
| 2026-04-14 17:08 | 39.04805 | -104.66634 | 10520 ft | 120 kts | 173° |
| 2026-04-14 17:08 | 39.03972 | -104.66517 | 10524 ft | 122 kts | 173° |
| 2026-04-14 17:09 | 39.03138 | -104.66398 | 10534 ft | 122 kts | 173° |
| 2026-04-14 17:09 | 39.02290 | -104.66275 | 10537 ft | 123 kts | 173° |
| 2026-04-14 17:09 | 39.01435 | -104.66152 | 10548 ft | 124 kts | 173° |
| 2026-04-14 17:09 | 39.00573 | -104.66030 | 10552 ft | 124 kts | 173° |
| 2026-04-14 17:10 | 38.99712 | -104.65906 | 10550 ft | 125 kts | 174° |
| 2026-04-14 17:10 | 38.98847 | -104.65782 | 10549 ft | 125 kts | 174° |
| 2026-04-14 17:10 | 38.97980 | -104.65658 | 10547 ft | 125 kts | 173° |
| 2026-04-14 17:10 | 38.97118 | -104.65537 | 10546 ft | 124 kts | 174° |
| 2026-04-14 17:11 | 38.96260 | -104.65414 | 10544 ft | 124 kts | 174° |
| 2026-04-14 17:11 | 38.95404 | -104.65293 | 10543 ft | 124 kts | 174° |
| 2026-04-14 17:11 | 38.94552 | -104.65176 | 10543 ft | 125 kts | 174° |
| 2026-04-14 17:11 | 38.93688 | -104.65059 | 10545 ft | 125 kts | 174° |
| 2026-04-14 17:12 | 38.92829 | -104.64940 | 10544 ft | 124 kts | 174° |
| 2026-04-14 17:12 | 38.91976 | -104.64778 | 10542 ft | 124 kts | 169° |
| 2026-04-14 17:12 | 38.91156 | -104.64448 | 10540 ft | 122 kts | 161° |
| 2026-04-14 17:12 | 38.90359 | -104.64099 | 10534 ft | 120 kts | 161° |
| 2026-04-14 17:13 | 38.89587 | -104.63719 | 10533 ft | 118 kts | 152° |
| 2026-04-14 17:13 | 38.88869 | -104.63217 | 10531 ft | 117 kts | 150° |
| 2026-04-14 17:13 | 38.88154 | -104.62727 | 10534 ft | 116 kts | 151° |
| 2026-04-14 17:13 | 38.87458 | -104.62209 | 10536 ft | 115 kts | 151° |
| 2026-04-14 17:14 | 38.86777 | -104.61670 | 10534 ft | 115 kts | 152° |
| 2026-04-14 17:14 | 38.86097 | -104.61113 | 10535 ft | 115 kts | 154° |
| 2026-04-14 17:14 | 38.85351 | -104.60834 | 10512 ft | 111 kts | 173° |
| 2026-04-14 17:14 | 38.84589 | -104.60623 | 10517 ft | 112 kts | 173° |
| 2026-04-14 17:15 | 38.83820 | -104.60426 | 10522 ft | 113 kts | 173° |
| 2026-04-14 17:15 | 38.83046 | -104.60208 | 10521 ft | 114 kts | 172° |
| 2026-04-14 17:15 | 38.82273 | -104.59996 | 10521 ft | 114 kts | 172° |
| 2026-04-14 17:15 | 38.81503 | -104.59796 | 10522 ft | 114 kts | 173° |
| 2026-04-14 17:16 | 38.80726 | -104.59583 | 10525 ft | 114 kts | 172° |
| 2026-04-14 17:16 | 38.79949 | -104.59388 | 10521 ft | 114 kts | 172° |
| 2026-04-14 17:16 | 38.79174 | -104.59189 | 10518 ft | 113 kts | 171° |
| 2026-04-14 17:16 | 38.78401 | -104.58976 | 10520 ft | 114 kts | 171° |
| 2026-04-14 17:17 | 38.77623 | -104.58781 | 10522 ft | 114 kts | 171° |
| 2026-04-14 17:17 | 38.76840 | -104.58587 | 10518 ft | 114 kts | 173° |
| 2026-04-14 17:17 | 38.76058 | -104.58404 | 10513 ft | 114 kts | 173° |
| 2026-04-14 17:17 | 38.75288 | -104.58223 | 10510 ft | 113 kts | 174° |
| 2026-04-14 17:18 | 38.74511 | -104.58022 | 10506 ft | 114 kts | 173° |
| 2026-04-14 17:18 | 38.73733 | -104.57822 | 10504 ft | 114 kts | 172° |
| 2026-04-14 17:18 | 38.72952 | -104.57636 | 10500 ft | 115 kts | 172° |
| 2026-04-14 17:18 | 38.72168 | -104.57446 | 10495 ft | 114 kts | 173° |
| 2026-04-14 17:19 | 38.71389 | -104.57237 | 10500 ft | 114 kts | 173° |
| 2026-04-14 17:19 | 38.70610 | -104.57031 | 10481 ft | 114 kts | 173° |
| 2026-04-14 17:19 | 38.69832 | -104.56833 | 10479 ft | 114 kts | 174° |
| 2026-04-14 17:19 | 38.69056 | -104.56639 | 10473 ft | 114 kts | 173° |
| 2026-04-14 17:20 | 38.68280 | -104.56461 | 10477 ft | 114 kts | 174° |
| 2026-04-14 17:20 | 38.67502 | -104.56239 | 10474 ft | 114 kts | 171° |
| 2026-04-14 17:20 | 38.66725 | -104.56019 | 10367 ft | 114 kts | 171° |
| 2026-04-14 17:20 | 38.65950 | -104.55808 | 10367 ft | 114 kts | 171° |
| 2026-04-14 17:21 | 38.65187 | -104.55559 | 10362 ft | 113 kts | 171° |
| 2026-04-14 17:21 | 38.64428 | -104.55314 | 10361 ft | 112 kts | 171° |
| 2026-04-14 17:21 | 38.63669 | -104.55077 | 10365 ft | 112 kts | 172° |
| 2026-04-14 17:21 | 38.62917 | -104.54825 | 10366 ft | 112 kts | 172° |
| 2026-04-14 17:22 | 38.62166 | -104.54579 | 10370 ft | 111 kts | 171° |
| 2026-04-14 17:22 | 38.61415 | -104.54343 | 10371 ft | 111 kts | 172° |
| 2026-04-14 17:22 | 38.60665 | -104.54101 | 10371 ft | 111 kts | 171° |
| 2026-04-14 17:22 | 38.59920 | -104.53862 | 10377 ft | 111 kts | 171° |
| 2026-04-14 17:23 | 38.59183 | -104.53616 | 10373 ft | 111 kts | 171° |
| 2026-04-14 17:23 | 38.58439 | -104.53364 | 10375 ft | 110 kts | 171° |
| 2026-04-14 17:23 | 38.57697 | -104.53118 | 10377 ft | 109 kts | 170° |
| 2026-04-14 17:23 | 38.56957 | -104.52890 | 10379 ft | 110 kts | 171° |
| 2026-04-14 17:24 | 38.56212 | -104.52660 | 10387 ft | 110 kts | 172° |
| 2026-04-14 17:24 | 38.55465 | -104.52422 | 10391 ft | 110 kts | 172° |
| 2026-04-14 17:24 | 38.54723 | -104.52181 | 10392 ft | 110 kts | 172° |
| 2026-04-14 17:24 | 38.53980 | -104.51944 | 10393 ft | 110 kts | 171° |
| 2026-04-14 17:25 | 38.53237 | -104.51724 | 10395 ft | 110 kts | 172° |
| 2026-04-14 17:25 | 38.52486 | -104.51498 | 10399 ft | 111 kts | 172° |
| 2026-04-14 17:25 | 38.51755 | -104.51158 | 10402 ft | 113 kts | 162° |
| 2026-04-14 17:25 | 38.51035 | -104.50752 | 10401 ft | 113 kts | 162° |
| 2026-04-14 17:26 | 38.50317 | -104.50355 | 10405 ft | 112 kts | 162° |
| 2026-04-14 17:26 | 38.49603 | -104.49948 | 10399 ft | 112 kts | 162° |
| 2026-04-14 17:26 | 38.48900 | -104.49553 | 10396 ft | 112 kts | 161° |
| 2026-04-14 17:26 | 38.48192 | -104.49148 | 10400 ft | 111 kts | 162° |
| 2026-04-14 17:27 | 38.47476 | -104.48759 | 10405 ft | 112 kts | 161° |
| 2026-04-14 17:27 | 38.46755 | -104.48374 | 10410 ft | 112 kts | 163° |
| 2026-04-14 17:27 | 38.46038 | -104.47971 | 10412 ft | 113 kts | 162° |
| 2026-04-14 17:27 | 38.45321 | -104.47565 | 10416 ft | 112 kts | 161° |
| 2026-04-14 17:28 | 38.44605 | -104.47171 | 10414 ft | 112 kts | 163° |
| 2026-04-14 17:28 | 38.43909 | -104.46720 | 10419 ft | 111 kts | 162° |
| 2026-04-14 17:28 | 38.43216 | -104.46275 | 10423 ft | 111 kts | 162° |
| 2026-04-14 17:28 | 38.42525 | -104.45828 | 10426 ft | 111 kts | 162° |
| 2026-04-14 17:29 | 38.41839 | -104.45377 | 10434 ft | 110 kts | 162° |
| 2026-04-14 17:29 | 38.41156 | -104.44929 | 10429 ft | 110 kts | 162° |
| 2026-04-14 17:29 | 38.40477 | -104.44487 | 10434 ft | 110 kts | 162° |
| 2026-04-14 17:29 | 38.39797 | -104.44044 | 10435 ft | 110 kts | 162° |
| 2026-04-14 17:30 | 38.39126 | -104.43608 | 10438 ft | 109 kts | 162° |
| 2026-04-14 17:30 | 38.38448 | -104.43165 | 10441 ft | 109 kts | 162° |
| 2026-04-14 17:30 | 38.37769 | -104.42725 | 10446 ft | 110 kts | 162° |
| 2026-04-14 17:30 | 38.37089 | -104.42285 | 10448 ft | 110 kts | 162° |
| 2026-04-14 17:31 | 38.36404 | -104.41843 | 10453 ft | 111 kts | 162° |
| 2026-04-14 17:31 | 38.35715 | -104.41400 | 10454 ft | 111 kts | 162° |
| 2026-04-14 17:31 | 38.35045 | -104.40970 | 10462 ft | 111 kts | 162° |
| 2026-04-14 17:31 | 38.34338 | -104.40518 | 10459 ft | 110 kts | 162° |
| 2026-04-14 17:32 | 38.33651 | -104.40079 | 10455 ft | 110 kts | 162° |
| 2026-04-14 17:32 | 38.32962 | -104.39639 | 10450 ft | 111 kts | 162° |
| 2026-04-14 17:32 | 38.32273 | -104.39202 | 10453 ft | 110 kts | 162° |
| 2026-04-14 17:32 | 38.31586 | -104.38765 | 10452 ft | 110 kts | 163° |
| 2026-04-14 17:33 | 38.30898 | -104.38325 | 10456 ft | 111 kts | 162° |
| 2026-04-14 17:33 | 38.30210 | -104.37884 | 10450 ft | 111 kts | 162° |
| 2026-04-14 17:33 | 38.29520 | -104.37443 | 10449 ft | 111 kts | 162° |
| 2026-04-14 17:34 | 38.28145 | -104.36573 | 10449 ft | 111 kts | 163° |
| 2026-04-14 17:34 | 38.27453 | -104.36133 | 10447 ft | 111 kts | 163° |
| 2026-04-14 17:34 | 38.26757 | -104.35696 | 10442 ft | 112 kts | 163° |
| 2026-04-14 17:34 | 38.26057 | -104.35259 | 10441 ft | 112 kts | 163° |
| 2026-04-14 17:35 | 38.25361 | -104.34822 | 10439 ft | 111 kts | 163° |
| 2026-04-14 17:35 | 38.24668 | -104.34384 | 10443 ft | 111 kts | 163° |
| 2026-04-14 17:35 | 38.24001 | -104.33963 | 10428 ft | 111 kts | 163° |
| 2026-04-14 17:35 | 38.23303 | -104.33501 | 10422 ft | 111 kts | 163° |
| 2026-04-14 17:36 | 38.22624 | -104.33023 | 10420 ft | 110 kts | 162° |
| 2026-04-14 17:36 | 38.21948 | -104.32558 | 10416 ft | 110 kts | 163° |
| 2026-04-14 17:36 | 38.21283 | -104.32102 | 10416 ft | 110 kts | 163° |
| 2026-04-14 17:36 | 38.20607 | -104.31639 | 10412 ft | 110 kts | 163° |
| 2026-04-14 17:37 | 38.19929 | -104.31177 | 10401 ft | 110 kts | 163° |
| 2026-04-14 17:37 | 38.19263 | -104.30713 | 10398 ft | 109 kts | 163° |
| 2026-04-14 17:37 | 38.18599 | -104.30251 | 10395 ft | 109 kts | 163° |
| 2026-04-14 17:37 | 38.17929 | -104.29786 | 10393 ft | 110 kts | 163° |
| 2026-04-14 17:38 | 38.17258 | -104.29319 | 10393 ft | 110 kts | 163° |
| 2026-04-14 17:38 | 38.16599 | -104.28866 | 10391 ft | 110 kts | 163° |
| 2026-04-14 17:38 | 38.15905 | -104.28391 | 10384 ft | 110 kts | 163° |
| 2026-04-14 17:38 | 38.15230 | -104.27929 | 10377 ft | 110 kts | 163° |
| 2026-04-14 17:39 | 38.14587 | -104.27485 | 10373 ft | 109 kts | 163° |
| 2026-04-14 17:39 | 38.13898 | -104.27012 | 10368 ft | 109 kts | 163° |
| 2026-04-14 17:39 | 38.13243 | -104.26567 | 10360 ft | 109 kts | 163° |
| 2026-04-14 17:39 | 38.12554 | -104.26095 | 10357 ft | 110 kts | 163° |
| 2026-04-14 17:40 | 38.11879 | -104.25633 | 10357 ft | 110 kts | 163° |
| 2026-04-14 17:40 | 38.11226 | -104.25180 | 10350 ft | 109 kts | 163° |
| 2026-04-14 17:40 | 38.10544 | -104.24704 | 10344 ft | 109 kts | 163° |
| 2026-04-14 17:40 | 38.09886 | -104.24255 | 10341 ft | 109 kts | 163° |
| 2026-04-14 17:41 | 38.09219 | -104.23802 | 10339 ft | 109 kts | 163° |
| 2026-04-14 17:41 | 38.08549 | -104.23349 | 10332 ft | 109 kts | 163° |
| 2026-04-14 17:41 | 38.07879 | -104.22893 | 10326 ft | 110 kts | 163° |
| 2026-04-14 17:41 | 38.07214 | -104.22435 | 10322 ft | 109 kts | 163° |
| 2026-04-14 17:42 | 38.06542 | -104.21973 | 10323 ft | 109 kts | 163° |
| 2026-04-14 17:42 | 38.05896 | -104.21530 | 10301 ft | 109 kts | 165° |
| 2026-04-14 17:42 | 38.05218 | -104.21043 | 10305 ft | 109 kts | 164° |
| 2026-04-14 17:42 | 38.04556 | -104.20569 | 10304 ft | 109 kts | 164° |
| 2026-04-14 17:43 | 38.03895 | -104.20094 | 10294 ft | 109 kts | 164° |
| 2026-04-14 17:43 | 38.03241 | -104.19622 | 10292 ft | 109 kts | 164° |
| 2026-04-14 17:43 | 38.02583 | -104.19150 | 10272 ft | 109 kts | 166° |
| 2026-04-14 17:43 | 38.01933 | -104.18661 | 10286 ft | 109 kts | 164° |
| 2026-04-14 17:44 | 38.01267 | -104.18165 | 10281 ft | 110 kts | 164° |
| 2026-04-14 17:44 | 38.00602 | -104.17674 | 10279 ft | 111 kts | 164° |
| 2026-04-14 17:44 | 37.99940 | -104.17183 | 10281 ft | 110 kts | 164° |
| 2026-04-14 17:44 | 37.99296 | -104.16705 | 10282 ft | 110 kts | 164° |
| 2026-04-14 17:45 | 37.98610 | -104.16197 | 10288 ft | 112 kts | 164° |
| 2026-04-14 17:45 | 37.97938 | -104.15700 | 10280 ft | 112 kts | 163° |
| 2026-04-14 17:45 | 37.97260 | -104.15203 | 10280 ft | 113 kts | 163° |
| 2026-04-14 17:45 | 37.96575 | -104.14704 | 10281 ft | 114 kts | 164° |
| 2026-04-14 17:46 | 37.95886 | -104.14202 | 10284 ft | 113 kts | 164° |
| 2026-04-14 17:46 | 37.95208 | -104.13709 | 10281 ft | 112 kts | 164° |
| 2026-04-14 17:46 | 37.94537 | -104.13220 | 10276 ft | 111 kts | 164° |
| 2026-04-14 17:46 | 37.93873 | -104.12900 | 10278 ft | 93 kts | 202° |
| 2026-04-14 17:47 | 37.93428 | -104.13361 | 10288 ft | 83 kts | 244° |
| 2026-04-14 17:47 | 37.93334 | -104.14090 | 10292 ft | 84 kts | 257° |
| 2026-04-14 17:47 | 37.93274 | -104.14585 | 10293 ft | 84 kts | 257° |
| 2026-04-14 17:47 | 37.93194 | -104.15315 | 10294 ft | 84 kts | 257° |
| 2026-04-14 17:48 | 37.93117 | -104.16051 | 10293 ft | 85 kts | 257° |
| 2026-04-14 17:48 | 37.93040 | -104.16797 | 10293 ft | 86 kts | 258° |
| 2026-04-14 17:48 | 37.92959 | -104.17521 | 10293 ft | 86 kts | 258° |
| 2026-04-14 17:48 | 37.92870 | -104.18292 | 10292 ft | 85 kts | 257° |
| 2026-04-14 17:49 | 37.92795 | -104.19027 | 10290 ft | 85 kts | 257° |
| 2026-04-14 17:49 | 37.92722 | -104.19773 | 10289 ft | 86 kts | 258° |
| 2026-04-14 17:49 | 37.92643 | -104.20524 | 10289 ft | 86 kts | 258° |
| 2026-04-14 17:49 | 37.92559 | -104.21274 | 10290 ft | 86 kts | 257° |
| 2026-04-14 17:50 | 37.92480 | -104.22025 | 10290 ft | 87 kts | 258° |
| 2026-04-14 17:50 | 37.92405 | -104.22775 | 10293 ft | 85 kts | 258° |
| 2026-04-14 17:50 | 37.92331 | -104.23519 | 10295 ft | 84 kts | 257° |
| 2026-04-14 17:50 | 37.92264 | -104.24253 | 10292 ft | 83 kts | 258° |
| 2026-04-14 17:51 | 37.92200 | -104.24971 | 10290 ft | 82 kts | 257° |
| 2026-04-14 17:51 | 37.92144 | -104.25682 | 10291 ft | 81 kts | 258° |
| 2026-04-14 17:51 | 37.92089 | -104.26395 | 10284 ft | 82 kts | 258° |
| 2026-04-14 17:51 | 37.92026 | -104.27103 | 10278 ft | 82 kts | 258° |
| 2026-04-14 17:52 | 37.91957 | -104.27823 | 10277 ft | 82 kts | 258° |
| 2026-04-14 17:52 | 37.91889 | -104.28543 | 10275 ft | 82 kts | 256° |
| 2026-04-14 17:52 | 37.91743 | -104.29241 | 10278 ft | 83 kts | 251° |
| 2026-04-14 17:52 | 37.91586 | -104.29945 | 10279 ft | 83 kts | 251° |
| 2026-04-14 17:53 | 37.91429 | -104.30647 | 10279 ft | 83 kts | 251° |
| 2026-04-14 17:53 | 37.91275 | -104.31345 | 10278 ft | 82 kts | 251° |
| 2026-04-14 17:53 | 37.91121 | -104.32040 | 10280 ft | 82 kts | 251° |
| 2026-04-14 17:53 | 37.90969 | -104.32729 | 10281 ft | 81 kts | 251° |
| 2026-04-14 17:54 | 37.90822 | -104.33414 | 10279 ft | 81 kts | 251° |
| 2026-04-14 17:54 | 37.90680 | -104.34096 | 10277 ft | 80 kts | 251° |
| 2026-04-14 17:54 | 37.90538 | -104.34775 | 10276 ft | 79 kts | 251° |
| 2026-04-14 17:54 | 37.90397 | -104.35450 | 10274 ft | 79 kts | 251° |
| 2026-04-14 17:55 | 37.90258 | -104.36122 | 10284 ft | 79 kts | 251° |
| 2026-04-14 17:55 | 37.90122 | -104.36792 | 10282 ft | 78 kts | 251° |
| 2026-04-14 17:55 | 37.89984 | -104.37461 | 10284 ft | 78 kts | 251° |
| 2026-04-14 17:55 | 37.89848 | -104.38117 | 10282 ft | 78 kts | 251° |
| 2026-04-14 17:56 | 37.89712 | -104.38783 | 10281 ft | 79 kts | 251° |
| 2026-04-14 17:56 | 37.89578 | -104.39459 | 10284 ft | 80 kts | 251° |
| 2026-04-14 17:56 | 37.89440 | -104.40142 | 10288 ft | 81 kts | 251° |
| 2026-04-14 17:56 | 37.89299 | -104.40835 | 10295 ft | 82 kts | 252° |
| 2026-04-14 17:57 | 37.89155 | -104.41540 | 10298 ft | 82 kts | 252° |
| 2026-04-14 17:57 | 37.89030 | -104.42232 | 10284 ft | 80 kts | 252° |
| 2026-04-14 17:57 | 37.88897 | -104.42913 | 10279 ft | 79 kts | 252° |
| 2026-04-14 17:57 | 37.88758 | -104.43578 | 10278 ft | 78 kts | 252° |
| 2026-04-14 17:58 | 37.88627 | -104.44245 | 10285 ft | 80 kts | 252° |
| 2026-04-14 17:58 | 37.88492 | -104.44935 | 10288 ft | 81 kts | 252° |
| 2026-04-14 17:58 | 37.88356 | -104.45633 | 10289 ft | 82 kts | 252° |
| 2026-04-14 17:58 | 37.88220 | -104.46337 | 10255 ft | 84 kts | 252° |
| 2026-04-14 17:59 | 37.88087 | -104.47077 | 10152 ft | 89 kts | 252° |
| 2026-04-14 17:59 | 37.87947 | -104.47860 | 10046 ft | 93 kts | 252° |
| 2026-04-14 17:59 | 37.87798 | -104.48669 | 9927 ft | 96 kts | 252° |
| 2026-04-14 17:59 | 37.87646 | -104.49495 | 9810 ft | 97 kts | 252° |
| 2026-04-14 18:00 | 37.87491 | -104.50324 | 9701 ft | 100 kts | 252° |
| 2026-04-14 18:00 | 37.87324 | -104.51184 | 9588 ft | 99 kts | 252° |
| 2026-04-14 18:00 | 37.86905 | -104.52805 | 9318 ft | 97 kts | 229° |
| 2026-04-14 18:01 | 37.86418 | -104.53334 | 9302 ft | 88 kts | 224° |